createdAt,value
2018-01-21T00:00:16.307Z,28.40
2018-01-21T00:01:16.235Z,30.20
2018-01-21T00:02:16.208Z,31.70
2018-01-21T00:03:16.169Z,26.70
2018-01-21T00:04:16.134Z,26.30
2018-01-21T00:05:16.064Z,27.50
2018-01-21T00:06:16.119Z,25.60
2018-01-21T00:07:15.979Z,26.00
2018-01-21T00:08:16.143Z,27.20
2018-01-21T00:09:15.924Z,26.70
2018-01-21T00:10:15.848Z,24.60
2018-01-21T00:11:15.815Z,26.60
2018-01-21T00:12:15.781Z,25.40
2018-01-21T00:13:15.737Z,26.10
2018-01-21T00:14:15.840Z,26.40
2018-01-21T00:15:15.986Z,24.60
2018-01-21T00:16:15.589Z,27.50
2018-01-21T00:17:15.543Z,27.60
2018-01-21T00:18:15.506Z,26.90
2018-01-21T00:19:15.456Z,27.70
2018-01-21T00:20:15.424Z,29.70
2018-01-21T00:21:15.371Z,30.50
2018-01-21T00:22:15.329Z,28.10
2018-01-21T00:23:15.286Z,29.60
2018-01-21T00:24:15.251Z,23.90
2018-01-21T00:25:15.210Z,26.50
2018-01-21T00:26:15.166Z,25.90
2018-01-21T00:27:15.118Z,26.70
2018-01-21T00:28:15.075Z,26.70
2018-01-21T00:29:15.035Z,27.30
2018-01-21T00:30:14.983Z,30.10
2018-01-21T00:31:14.956Z,27.60
2018-01-21T00:32:14.914Z,25.40
2018-01-21T00:33:14.911Z,26.10
2018-01-21T00:34:14.834Z,27.60
2018-01-21T00:35:14.774Z,26.60
2018-01-21T00:36:14.754Z,26.50
2018-01-21T00:37:14.781Z,26.40
2018-01-21T00:38:14.647Z,27.40
2018-01-21T00:39:14.638Z,28.90
2018-01-21T00:40:14.571Z,26.20
2018-01-21T00:41:14.520Z,28.90
2018-01-21T00:42:14.502Z,24.70
2018-01-21T00:43:14.496Z,27.80
2018-01-21T00:44:14.392Z,29.10
2018-01-21T00:45:14.395Z,30.70
2018-01-21T00:46:14.301Z,30.80
2018-01-21T00:47:14.271Z,29.40
2018-01-21T00:48:14.226Z,32.00
2018-01-21T00:49:14.167Z,27.50
2018-01-21T00:50:14.273Z,28.90
2018-01-21T00:51:14.457Z,31.20
2018-01-21T00:52:14.384Z,29.20
2018-01-21T00:53:14.183Z,33.80
2018-01-21T00:54:14.720Z,28.10
2018-01-21T00:55:13.970Z,27.90
2018-01-21T00:56:13.897Z,30.40
2018-01-21T00:57:14.034Z,29.20
2018-01-21T00:58:13.809Z,29.10
2018-01-21T00:59:13.742Z,31.10
2018-01-21T01:00:13.763Z,30.60
2018-01-21T01:01:13.650Z,31.10
2018-01-21T01:02:13.612Z,28.70
2018-01-21T01:03:13.580Z,28.60
2018-01-21T01:04:13.778Z,28.90
2018-01-21T01:05:13.484Z,31.10
2018-01-21T01:06:13.451Z,29.30
2018-01-21T01:07:13.531Z,29.10
2018-01-21T01:08:13.457Z,30.80
2018-01-21T01:09:13.400Z,30.50
2018-01-21T01:10:13.320Z,31.00
2018-01-21T01:11:13.270Z,29.80
2018-01-21T01:12:13.189Z,30.90
2018-01-21T01:13:13.339Z,30.30
2018-01-21T01:14:13.270Z,31.60
2018-01-21T01:15:13.203Z,30.80
2018-01-21T01:16:13.008Z,30.80
2018-01-21T01:17:12.961Z,28.60
2018-01-21T01:18:12.926Z,29.90
2018-01-21T01:19:12.870Z,28.60
2018-01-21T01:20:12.833Z,30.80
2018-01-21T01:21:13.010Z,29.20
2018-01-21T01:22:13.054Z,29.20
2018-01-21T01:23:12.877Z,30.90
2018-01-21T01:24:12.694Z,30.70
2018-01-21T01:25:12.615Z,28.50
2018-01-21T01:26:12.581Z,29.80
2018-01-21T01:27:12.533Z,27.60
2018-01-21T01:28:12.505Z,29.90
2018-01-21T01:29:12.502Z,32.20
2018-01-21T01:30:12.583Z,29.80
2018-01-21T01:31:12.374Z,29.80
2018-01-21T01:32:12.314Z,31.20
2018-01-21T01:33:12.281Z,29.90
2018-01-21T01:34:12.240Z,29.90
2018-01-21T01:35:12.416Z,26.00
2018-01-21T01:36:12.510Z,27.40
2018-01-21T01:37:12.106Z,28.20
2018-01-21T01:38:12.078Z,27.10
2018-01-21T01:39:12.073Z,29.90
2018-01-21T01:40:11.982Z,26.30
2018-01-21T01:41:12.135Z,29.20
2018-01-21T01:42:11.998Z,27.50
2018-01-21T01:43:12.028Z,29.60
2018-01-21T01:44:11.956Z,27.70
2018-01-21T01:45:12.057Z,27.40
2018-01-21T01:46:11.786Z,27.10
2018-01-21T01:47:11.702Z,28.60
2018-01-21T01:48:11.650Z,29.10
2018-01-21T01:49:11.582Z,28.00
2018-01-21T01:50:11.592Z,27.20
2018-01-21T01:51:11.756Z,26.70
2018-01-21T01:52:11.461Z,29.10
2018-01-21T01:53:11.430Z,28.40
2018-01-21T01:54:11.403Z,25.70
2018-01-21T01:55:11.373Z,28.90
2018-01-21T01:56:11.316Z,28.10
2018-01-21T01:57:11.245Z,29.10
2018-01-21T01:58:11.199Z,27.10
2018-01-21T01:59:11.183Z,27.90
2018-01-21T02:00:11.127Z,26.60
2018-01-21T02:01:11.072Z,28.10
2018-01-21T02:02:11.033Z,28.30
2018-01-21T02:03:11.041Z,27.50
2018-01-21T02:04:10.941Z,28.00
2018-01-21T02:05:10.901Z,27.50
2018-01-21T02:06:10.908Z,26.10
2018-01-21T02:07:10.892Z,23.40
2018-01-21T02:08:10.846Z,27.10
2018-01-21T02:09:10.900Z,26.50
2018-01-21T02:10:10.686Z,26.20
2018-01-21T02:11:10.684Z,24.70
2018-01-21T02:12:10.600Z,26.30
2018-01-21T02:13:10.803Z,25.00
2018-01-21T02:14:10.542Z,25.20
2018-01-21T02:15:10.497Z,25.50
2018-01-21T02:16:10.435Z,26.80
2018-01-21T02:17:10.402Z,24.10
2018-01-21T02:18:10.339Z,28.40
2018-01-21T02:19:10.294Z,25.20
2018-01-21T02:20:10.266Z,26.20
2018-01-21T02:21:10.218Z,26.10
2018-01-21T02:22:10.207Z,25.20
2018-01-21T02:23:10.122Z,27.40
2018-01-21T02:24:10.075Z,27.70
2018-01-21T02:25:10.035Z,25.90
2018-01-21T02:26:09.992Z,25.60
2018-01-21T02:27:09.956Z,25.70
2018-01-21T02:28:09.912Z,27.50
2018-01-21T02:29:09.872Z,29.20
2018-01-21T02:30:09.820Z,28.60
2018-01-21T02:31:09.777Z,26.20
2018-01-21T02:32:09.742Z,28.00
2018-01-21T02:33:09.752Z,27.40
2018-01-21T02:34:09.650Z,26.00
2018-01-21T02:35:09.617Z,28.60
2018-01-21T02:36:09.573Z,26.40
2018-01-21T02:37:09.540Z,26.70
2018-01-21T02:38:09.478Z,26.00
2018-01-21T02:39:09.437Z,28.50
2018-01-21T02:40:09.428Z,29.40
2018-01-21T02:41:09.346Z,30.70
2018-01-21T02:42:09.328Z,27.20
2018-01-21T02:43:09.257Z,26.80
2018-01-21T02:44:09.222Z,23.50
2018-01-21T02:45:09.176Z,27.00
2018-01-21T02:46:09.139Z,28.50
2018-01-21T02:47:09.090Z,30.00
2018-01-21T02:48:09.046Z,26.70
2018-01-21T02:49:09.028Z,27.20
2018-01-21T02:50:08.980Z,27.00
2018-01-21T02:51:08.914Z,28.60
2018-01-21T02:52:08.899Z,20.90
2018-01-21T02:53:08.874Z,25.10
2018-01-21T02:54:08.792Z,25.10
2018-01-21T02:55:08.764Z,24.90
2018-01-21T02:56:08.707Z,23.20
2018-01-21T02:57:08.728Z,25.80
2018-01-21T02:58:08.628Z,26.40
2018-01-21T02:59:08.578Z,29.10
2018-01-21T03:00:08.535Z,24.90
2018-01-21T03:01:08.504Z,27.30
2018-01-21T03:02:08.451Z,24.90
2018-01-21T03:03:08.430Z,29.90
2018-01-21T03:04:08.369Z,30.60
2018-01-21T03:05:08.312Z,22.80
2018-01-21T03:06:08.285Z,27.00
2018-01-21T03:07:08.245Z,27.00
2018-01-21T03:08:08.197Z,27.10
2018-01-21T03:09:08.176Z,29.40
2018-01-21T03:10:08.106Z,26.40
2018-01-21T03:11:08.087Z,29.30
2018-01-21T03:12:08.063Z,28.70
2018-01-21T03:13:07.976Z,25.40
2018-01-21T03:14:07.937Z,28.00
2018-01-21T03:15:07.889Z,25.20
2018-01-21T03:16:07.881Z,26.20
2018-01-21T03:17:07.806Z,29.90
2018-01-21T03:18:07.756Z,27.00
2018-01-21T03:19:07.710Z,27.90
2018-01-21T03:20:07.713Z,31.60
2018-01-21T03:21:07.619Z,27.60
2018-01-21T03:22:07.596Z,27.90
2018-01-21T03:23:07.546Z,26.00
2018-01-21T03:24:07.503Z,26.50
2018-01-21T03:25:07.466Z,30.70
2018-01-21T03:26:07.413Z,25.50
2018-01-21T03:27:07.381Z,28.80
2018-01-21T03:28:07.330Z,26.80
2018-01-21T03:29:07.281Z,26.40
2018-01-21T03:30:07.247Z,26.70
2018-01-21T03:31:07.199Z,28.30
2018-01-21T03:32:07.185Z,26.70
2018-01-21T03:33:07.114Z,25.90
2018-01-21T03:34:07.453Z,27.40
2018-01-21T03:35:07.030Z,27.40
2018-01-21T03:36:07.002Z,26.30
2018-01-21T03:37:06.949Z,25.40
2018-01-21T03:38:06.896Z,28.80
2018-01-21T03:39:06.856Z,30.30
2018-01-21T03:40:06.814Z,28.60
2018-01-21T03:41:07.044Z,27.80
2018-01-21T03:42:06.730Z,25.50
2018-01-21T03:43:06.684Z,31.20
2018-01-21T03:44:06.648Z,29.30
2018-01-21T03:45:06.614Z,26.80
2018-01-21T03:46:06.561Z,29.50
2018-01-21T03:47:06.516Z,30.20
2018-01-21T03:48:06.519Z,29.70
2018-01-21T03:49:06.428Z,30.50
2018-01-21T03:50:06.425Z,30.70
2018-01-21T03:51:06.441Z,31.30
2018-01-21T03:52:06.374Z,30.20
2018-01-21T03:53:06.297Z,27.80
2018-01-21T03:54:06.227Z,26.20
2018-01-21T03:55:06.166Z,30.00
2018-01-21T03:56:06.130Z,30.50
2018-01-21T03:57:06.187Z,32.00
2018-01-21T03:58:06.053Z,31.70
2018-01-21T03:59:06.005Z,30.50
2018-01-21T04:00:06.150Z,34.10
2018-01-21T04:01:05.899Z,32.80
2018-01-21T04:02:05.860Z,31.90
2018-01-21T04:03:05.812Z,33.00
2018-01-21T04:04:05.769Z,30.10
2018-01-21T04:05:05.724Z,35.60
2018-01-21T04:06:05.682Z,31.30
2018-01-21T04:07:05.657Z,32.80
2018-01-21T04:08:05.598Z,33.50
2018-01-21T04:09:05.553Z,33.00
2018-01-21T04:10:05.513Z,32.60
2018-01-21T04:11:05.470Z,32.50
2018-01-21T04:12:05.425Z,31.20
2018-01-21T04:13:05.382Z,34.10
2018-01-21T04:14:05.366Z,35.50
2018-01-21T04:15:05.293Z,33.80
2018-01-21T04:16:05.254Z,33.30
2018-01-21T04:17:05.206Z,34.50
2018-01-21T04:18:05.168Z,32.20
2018-01-21T04:19:05.124Z,35.10
2018-01-21T04:20:05.078Z,32.10
2018-01-21T04:21:05.034Z,37.70
2018-01-21T04:22:04.992Z,33.50
2018-01-21T04:23:04.951Z,33.00
2018-01-21T04:24:04.908Z,29.80
2018-01-21T04:25:04.860Z,33.90
2018-01-21T04:26:04.819Z,31.40
2018-01-21T04:27:04.776Z,34.90
2018-01-21T04:28:04.737Z,35.60
2018-01-21T04:29:04.698Z,38.40
2018-01-21T04:30:04.651Z,35.30
2018-01-21T04:31:04.610Z,34.20
2018-01-21T04:32:04.634Z,36.60
2018-01-21T04:33:04.529Z,34.10
2018-01-21T04:34:04.481Z,37.00
2018-01-21T04:35:04.432Z,33.00
2018-01-21T04:36:04.392Z,33.40
2018-01-21T04:37:04.370Z,36.20
2018-01-21T04:38:04.308Z,33.20
2018-01-21T04:39:04.269Z,36.80
2018-01-21T04:40:04.216Z,33.90
2018-01-21T04:41:04.186Z,27.50
2018-01-21T04:42:04.156Z,30.80
2018-01-21T04:43:04.092Z,36.30
2018-01-21T04:44:04.059Z,38.30
2018-01-21T04:45:04.008Z,35.90
2018-01-21T04:46:03.989Z,32.60
2018-01-21T04:47:03.922Z,36.50
2018-01-21T04:48:03.870Z,37.80
2018-01-21T04:49:03.834Z,37.10
2018-01-21T04:50:03.789Z,35.30
2018-01-21T04:51:04.452Z,35.90
2018-01-21T04:52:03.698Z,38.50
2018-01-21T04:53:03.655Z,39.70
2018-01-21T04:54:03.615Z,39.10
2018-01-21T04:55:03.571Z,40.90
2018-01-21T04:56:03.531Z,42.50
2018-01-21T04:57:03.483Z,38.70
2018-01-21T04:58:03.439Z,38.70
2018-01-21T04:59:03.396Z,36.70
2018-01-21T05:00:03.355Z,41.20
2018-01-21T05:01:03.308Z,38.90
2018-01-21T05:02:03.268Z,47.10
2018-01-21T05:03:03.226Z,43.20
2018-01-21T05:04:03.192Z,43.40
2018-01-21T05:05:03.139Z,46.20
2018-01-21T05:06:03.096Z,45.80
2018-01-21T05:07:03.052Z,41.40
2018-01-21T05:08:03.009Z,43.50
2018-01-21T05:09:02.974Z,44.80
2018-01-21T05:10:02.924Z,46.00
2018-01-21T05:11:02.881Z,44.70
2018-01-21T05:12:02.842Z,43.80
2018-01-21T05:13:02.791Z,42.20
2018-01-21T05:14:02.749Z,44.80
2018-01-21T05:15:02.707Z,44.70
2018-01-21T05:16:02.666Z,37.30
2018-01-21T05:17:02.621Z,37.70
2018-01-21T05:18:02.578Z,43.10
2018-01-21T05:19:02.533Z,38.20
2018-01-21T05:20:02.490Z,36.30
2018-01-21T05:21:02.452Z,42.30
2018-01-21T05:22:02.412Z,41.30
2018-01-21T05:23:02.362Z,41.80
2018-01-21T05:24:02.317Z,41.40
2018-01-21T05:25:02.274Z,41.60
2018-01-21T05:26:02.231Z,36.10
2018-01-21T05:27:02.190Z,38.90
2018-01-21T05:28:02.151Z,33.50
2018-01-21T05:29:02.104Z,39.10
2018-01-21T05:30:02.059Z,42.00
2018-01-21T05:31:02.016Z,45.90
2018-01-21T05:32:01.973Z,45.30
2018-01-21T05:33:01.931Z,38.10
2018-01-21T05:34:01.887Z,29.20
2018-01-21T05:35:01.844Z,33.40
2018-01-21T05:36:01.802Z,38.90
2018-01-21T05:37:01.757Z,33.20
2018-01-21T05:38:01.714Z,36.60
2018-01-21T05:39:01.671Z,34.20
2018-01-21T05:40:01.628Z,39.40
2018-01-21T05:41:01.586Z,43.90
2018-01-21T05:42:01.541Z,44.50
2018-01-21T05:43:01.505Z,48.90
2018-01-21T05:44:01.455Z,34.40
2018-01-21T05:45:01.414Z,47.50
2018-01-21T05:46:01.367Z,43.40
2018-01-21T05:47:01.326Z,48.70
2018-01-21T05:48:01.286Z,49.00
2018-01-21T05:49:01.238Z,47.50
2018-01-21T05:50:01.195Z,45.50
2018-01-21T05:51:01.150Z,35.20
2018-01-21T05:52:01.111Z,29.40
2018-01-21T05:53:01.065Z,29.70
2018-01-21T05:54:01.021Z,29.50
2018-01-21T05:55:00.976Z,32.00
2018-01-21T05:56:00.933Z,36.60
2018-01-21T05:57:00.890Z,33.30
2018-01-21T05:58:00.864Z,36.10
2018-01-21T05:59:00.804Z,44.60
2018-01-21T06:00:00.762Z,38.90
2018-01-21T06:01:00.723Z,40.40
2018-01-21T06:02:00.675Z,29.30
2018-01-21T06:03:00.632Z,32.20
2018-01-21T06:04:00.587Z,32.70
2018-01-21T06:05:00.560Z,37.30
2018-01-21T06:06:00.501Z,41.40
2018-01-21T06:07:00.460Z,45.00
2018-01-21T06:08:00.417Z,39.00
2018-01-21T06:09:00.371Z,44.30
2018-01-21T06:10:00.330Z,33.70
2018-01-21T06:11:00.287Z,38.20
2018-01-21T06:12:00.249Z,33.30
2018-01-21T06:13:00.203Z,30.50
2018-01-21T06:14:00.157Z,41.00
2018-01-21T06:15:00.114Z,39.70
2018-01-21T06:16:00.072Z,41.80
2018-01-21T06:17:00.025Z,41.10
2018-01-21T06:17:59.995Z,37.90
2018-01-21T06:18:59.939Z,40.60
2018-01-21T06:19:59.911Z,38.70
2018-01-21T06:20:59.852Z,37.50
2018-01-21T06:21:59.829Z,43.60
2018-01-21T06:22:59.765Z,35.20
2018-01-21T06:23:59.724Z,36.10
2018-01-21T06:24:59.677Z,33.30
2018-01-21T06:25:59.636Z,28.00
2018-01-21T06:26:59.592Z,32.20
2018-01-21T06:27:59.548Z,38.80
2018-01-21T06:28:59.513Z,35.60
2018-01-21T06:29:59.463Z,33.30
2018-01-21T06:30:59.420Z,37.70
2018-01-21T06:31:59.377Z,30.10
2018-01-21T06:32:59.333Z,32.40
2018-01-21T06:33:59.288Z,29.10
2018-01-21T06:34:59.257Z,29.40
2018-01-21T06:35:59.202Z,19.50
2018-01-21T06:36:59.157Z,37.90
2018-01-21T06:37:59.117Z,31.10
2018-01-21T06:38:59.073Z,35.20
2018-01-21T06:39:59.031Z,36.90
2018-01-21T06:40:58.992Z,37.70
2018-01-21T06:41:58.941Z,39.00
2018-01-21T06:42:58.898Z,38.50
2018-01-21T06:43:58.857Z,37.20
2018-01-21T06:44:58.834Z,36.80
2018-01-21T06:45:58.777Z,34.50
2018-01-21T06:46:58.726Z,32.20
2018-01-21T06:47:58.685Z,34.30
2018-01-21T06:48:58.638Z,36.70
2018-01-21T06:49:58.602Z,35.50
2018-01-21T06:50:58.554Z,38.50
2018-01-21T06:51:58.510Z,38.90
2018-01-21T06:52:58.466Z,37.80
2018-01-21T06:53:58.424Z,37.80
2018-01-21T06:54:58.393Z,38.60
2018-01-21T06:55:58.339Z,39.30
2018-01-21T06:56:58.297Z,37.90
2018-01-21T06:57:58.254Z,38.50
2018-01-21T06:58:58.205Z,40.80
2018-01-21T06:59:58.165Z,37.70
2018-01-21T07:00:58.167Z,35.70
2018-01-21T07:01:58.077Z,36.50
2018-01-21T07:02:58.033Z,37.80
2018-01-21T07:03:57.993Z,38.10
2018-01-21T07:04:57.947Z,36.50
2018-01-21T07:05:57.903Z,39.20
2018-01-21T07:06:57.860Z,39.90
2018-01-21T07:07:57.830Z,42.90
2018-01-21T07:08:57.782Z,39.20
2018-01-21T07:09:57.731Z,42.30
2018-01-21T07:10:58.228Z,42.30
2018-01-21T07:11:57.651Z,41.30
2018-01-21T07:12:57.623Z,37.90
2018-01-21T07:13:57.556Z,36.50
2018-01-21T07:14:57.515Z,30.80
2018-01-21T07:15:57.473Z,39.50
2018-01-21T07:16:57.429Z,38.80
2018-01-21T07:17:57.385Z,39.70
2018-01-21T07:18:57.342Z,43.10
2018-01-21T07:19:57.300Z,40.60
2018-01-21T07:20:57.255Z,43.40
2018-01-21T07:21:57.216Z,41.70
2018-01-21T07:22:57.170Z,41.60
2018-01-21T07:23:57.126Z,33.20
2018-01-21T07:24:57.082Z,32.80
2018-01-21T07:25:57.039Z,36.30
2018-01-21T07:26:57.019Z,38.50
2018-01-21T07:27:56.955Z,41.80
2018-01-21T07:28:56.910Z,50.90
2018-01-21T07:29:56.866Z,46.10
2018-01-21T07:30:56.824Z,46.80
2018-01-21T07:31:56.800Z,45.70
2018-01-21T07:32:56.737Z,42.90
2018-01-21T07:33:56.695Z,41.90
2018-01-21T07:34:56.670Z,33.40
2018-01-21T07:35:56.608Z,42.30
2018-01-21T07:36:56.565Z,44.30
2018-01-21T07:37:56.528Z,38.80
2018-01-21T07:38:56.485Z,35.70
2018-01-21T07:39:56.437Z,32.20
2018-01-21T07:40:56.424Z,27.70
2018-01-21T07:41:56.350Z,27.90
2018-01-21T07:42:56.307Z,30.20
2018-01-21T07:43:56.269Z,28.20
2018-01-21T07:44:56.226Z,34.00
2018-01-21T07:45:56.178Z,34.40
2018-01-21T07:46:56.134Z,36.50
2018-01-21T07:47:56.092Z,38.60
2018-01-21T07:48:56.047Z,35.00
2018-01-21T07:49:56.007Z,34.10
2018-01-21T07:50:55.962Z,35.40
2018-01-21T07:51:55.927Z,35.10
2018-01-21T07:52:55.879Z,29.20
2018-01-21T07:53:55.833Z,31.10
2018-01-21T07:54:55.800Z,31.80
2018-01-21T07:55:55.755Z,33.40
2018-01-21T07:56:55.704Z,32.10
2018-01-21T07:57:55.668Z,35.00
2018-01-21T07:58:55.620Z,34.50
2018-01-21T07:59:55.585Z,35.20
2018-01-21T08:00:55.547Z,32.80
2018-01-21T08:01:55.492Z,34.30
2018-01-21T08:02:55.452Z,35.60
2018-01-21T08:03:55.404Z,39.80
2018-01-21T08:04:55.374Z,39.30
2018-01-21T08:05:55.317Z,39.10
2018-01-21T08:06:55.275Z,39.40
2018-01-21T08:07:55.231Z,45.90
2018-01-21T08:08:55.203Z,42.90
2018-01-21T08:09:55.169Z,44.80
2018-01-21T08:10:55.100Z,40.10
2018-01-21T08:11:55.060Z,42.00
2018-01-21T08:12:55.027Z,39.50
2018-01-21T08:13:55.000Z,40.30
2018-01-21T08:14:54.929Z,39.60
2018-01-21T08:15:54.898Z,43.90
2018-01-21T08:16:54.844Z,43.70
2018-01-21T08:17:54.803Z,40.00
2018-01-21T08:18:54.803Z,41.90
2018-01-21T08:19:54.715Z,41.30
2018-01-21T08:20:54.676Z,41.20
2018-01-21T08:21:54.635Z,38.70
2018-01-21T08:22:54.589Z,43.60
2018-01-21T08:23:54.547Z,43.30
2018-01-21T08:24:54.505Z,48.10
2018-01-21T08:25:54.462Z,45.20
2018-01-21T08:26:54.420Z,47.80
2018-01-21T08:27:54.374Z,45.80
2018-01-21T08:28:54.329Z,46.20
2018-01-21T08:29:54.287Z,42.80
2018-01-21T08:30:54.284Z,37.50
2018-01-21T08:31:54.209Z,37.10
2018-01-21T08:32:54.172Z,34.10
2018-01-21T08:33:54.121Z,34.70
2018-01-21T08:34:54.080Z,37.40
2018-01-21T08:35:54.045Z,36.70
2018-01-21T08:36:53.990Z,33.80
2018-01-21T08:37:53.947Z,37.70
2018-01-21T08:38:53.905Z,38.00
2018-01-21T08:39:53.867Z,36.50
2018-01-21T08:40:53.817Z,38.10
2018-01-21T08:41:53.779Z,37.10
2018-01-21T08:42:53.733Z,36.20
2018-01-21T08:43:53.701Z,37.40
2018-01-21T08:44:53.652Z,40.50
2018-01-21T08:45:53.606Z,38.00
2018-01-21T08:46:53.564Z,37.60
2018-01-21T08:47:53.521Z,39.50
2018-01-21T08:48:53.476Z,37.50
2018-01-21T08:49:53.436Z,41.90
2018-01-21T08:50:53.402Z,37.30
2018-01-21T08:51:53.349Z,32.00
2018-01-21T08:52:53.313Z,34.10
2018-01-21T08:53:53.265Z,38.90
2018-01-21T08:54:53.245Z,39.20
2018-01-21T08:55:53.177Z,38.90
2018-01-21T08:56:53.134Z,34.30
2018-01-21T08:57:53.112Z,37.70
2018-01-21T08:58:53.049Z,44.60
2018-01-21T08:59:53.061Z,42.10
2018-01-21T09:00:52.966Z,44.10
2018-01-21T09:01:52.925Z,47.10
2018-01-21T09:02:52.880Z,44.90
2018-01-21T09:03:52.837Z,47.20
2018-01-21T09:04:52.793Z,49.60
2018-01-21T09:05:52.758Z,41.80
2018-01-21T09:06:52.709Z,28.90
2018-01-21T09:07:52.682Z,38.80
2018-01-21T09:08:52.623Z,39.60
2018-01-21T09:09:52.626Z,40.80
2018-01-21T09:10:52.549Z,38.80
2018-01-21T09:11:52.561Z,37.20
2018-01-21T09:12:52.450Z,37.50
2018-01-21T09:13:52.409Z,42.90
2018-01-21T09:14:52.367Z,43.80
2018-01-21T09:15:52.325Z,42.80
2018-01-21T09:16:52.288Z,48.00
2018-01-21T09:17:52.245Z,51.50
2018-01-21T09:18:52.201Z,47.90
2018-01-21T09:19:52.161Z,47.90
2018-01-21T09:20:52.112Z,46.10
2018-01-21T09:21:52.068Z,43.20
2018-01-21T09:22:52.027Z,43.10
2018-01-21T09:23:52.008Z,38.20
2018-01-21T09:24:51.982Z,39.70
2018-01-21T09:25:51.912Z,40.60
2018-01-21T09:26:51.857Z,36.60
2018-01-21T09:27:51.820Z,38.60
2018-01-21T09:28:51.780Z,36.70
2018-01-21T09:29:51.730Z,36.30
2018-01-21T09:30:51.687Z,32.30
2018-01-21T09:31:51.651Z,29.60
2018-01-21T09:32:51.601Z,33.20
2018-01-21T09:33:51.558Z,33.60
2018-01-21T09:34:51.526Z,37.00
2018-01-21T09:35:51.475Z,31.60
2018-01-21T09:36:51.450Z,31.00
2018-01-21T09:37:51.388Z,27.10
2018-01-21T09:38:51.348Z,32.60
2018-01-21T09:39:51.311Z,37.10
2018-01-21T09:40:51.265Z,40.10
2018-01-21T09:41:51.222Z,40.50
2018-01-21T09:42:51.182Z,41.40
2018-01-21T09:43:51.137Z,38.30
2018-01-21T09:44:51.092Z,39.70
2018-01-21T09:45:51.057Z,40.60
2018-01-21T09:46:51.010Z,41.00
2018-01-21T09:47:50.963Z,32.00
2018-01-21T09:48:50.926Z,35.80
2018-01-21T09:49:50.878Z,38.20
2018-01-21T09:50:50.843Z,38.50
2018-01-21T09:51:50.806Z,42.50
2018-01-21T09:52:50.766Z,41.80
2018-01-21T09:53:50.718Z,40.80
2018-01-21T09:54:50.664Z,39.90
2018-01-21T09:55:50.631Z,46.30
2018-01-21T09:56:50.597Z,48.90
2018-01-21T09:57:50.546Z,44.60
2018-01-21T09:58:50.510Z,45.60
2018-01-21T09:59:50.452Z,47.00
2018-01-21T10:00:50.422Z,46.40
2018-01-21T10:01:50.384Z,42.50
2018-01-21T10:02:50.334Z,45.40
2018-01-21T10:03:50.298Z,45.80
2018-01-21T10:04:50.247Z,43.70
2018-01-21T10:05:50.200Z,49.70
2018-01-21T10:06:50.158Z,45.90
2018-01-21T10:07:50.151Z,49.30
2018-01-21T10:08:50.081Z,46.10
2018-01-21T10:09:50.039Z,46.20
2018-01-21T10:10:49.986Z,41.80
2018-01-21T10:11:49.947Z,48.60
2018-01-21T10:12:49.902Z,47.00
2018-01-21T10:13:49.861Z,43.40
2018-01-21T10:14:49.824Z,50.60
2018-01-21T10:15:49.777Z,53.40
2018-01-21T10:16:49.732Z,49.40
2018-01-21T10:17:49.691Z,47.10
2018-01-21T10:18:49.648Z,52.40
2018-01-21T10:19:49.607Z,47.70
2018-01-21T10:20:49.564Z,45.40
2018-01-21T10:21:49.520Z,43.20
2018-01-21T10:22:49.483Z,46.70
2018-01-21T10:23:49.441Z,46.50
2018-01-21T10:24:49.394Z,44.50
2018-01-21T10:25:49.349Z,45.30
2018-01-21T10:26:49.316Z,44.50
2018-01-21T10:27:49.270Z,44.30
2018-01-21T10:28:49.229Z,45.30
2018-01-21T10:29:49.199Z,48.40
2018-01-21T10:30:49.144Z,47.60
2018-01-21T10:31:49.112Z,43.90
2018-01-21T10:32:49.054Z,46.20
2018-01-21T10:33:49.018Z,39.70
2018-01-21T10:34:48.980Z,38.80
2018-01-21T10:35:48.937Z,40.30
2018-01-21T10:36:49.277Z,40.70
2018-01-21T10:37:49.137Z,40.60
2018-01-21T10:38:48.858Z,39.50
2018-01-21T10:39:48.876Z,42.40
2018-01-21T10:40:48.733Z,39.50
2018-01-21T10:41:48.844Z,43.90
2018-01-21T10:42:48.800Z,41.90
2018-01-21T10:43:48.781Z,38.90
2018-01-21T10:44:48.550Z,36.70
2018-01-21T10:45:48.544Z,39.00
2018-01-21T10:46:48.523Z,42.10
2018-01-21T10:47:48.698Z,41.30
2018-01-21T10:48:48.514Z,39.50
2018-01-21T10:49:48.331Z,47.10
2018-01-21T10:50:48.917Z,40.10
2018-01-21T10:51:48.494Z,40.20
2018-01-21T10:52:48.272Z,41.30
2018-01-21T10:53:48.179Z,35.80
2018-01-21T10:54:48.128Z,39.10
2018-01-21T10:55:48.091Z,39.00
2018-01-21T10:56:48.041Z,38.70
2018-01-21T10:57:48.118Z,40.30
2018-01-21T10:58:47.957Z,35.20
2018-01-21T10:59:47.940Z,36.70
2018-01-21T11:00:47.916Z,36.90
2018-01-21T11:01:47.844Z,36.50
2018-01-21T11:02:47.817Z,40.10
2018-01-21T11:03:47.750Z,40.70
2018-01-21T11:04:47.721Z,43.50
2018-01-21T11:05:47.670Z,45.40
2018-01-21T11:06:47.624Z,37.60
2018-01-21T11:07:47.672Z,39.30
2018-01-21T11:08:47.608Z,38.00
2018-01-21T11:09:47.512Z,37.60
2018-01-21T11:10:47.454Z,38.00
2018-01-21T11:11:47.585Z,39.90
2018-01-21T11:12:47.358Z,40.30
2018-01-21T11:13:47.326Z,40.50
2018-01-21T11:14:47.283Z,42.80
2018-01-21T11:15:47.234Z,41.30
2018-01-21T11:16:47.184Z,40.00
2018-01-21T11:17:47.146Z,41.10
2018-01-21T11:18:47.108Z,38.80
2018-01-21T11:19:47.061Z,37.80
2018-01-21T11:20:47.021Z,37.20
2018-01-21T11:21:46.982Z,37.00
2018-01-21T11:22:46.951Z,38.50
2018-01-21T11:23:46.895Z,37.70
2018-01-21T11:24:46.863Z,39.10
2018-01-21T11:25:46.843Z,37.80
2018-01-21T11:26:46.765Z,37.40
2018-01-21T11:27:46.724Z,39.40
2018-01-21T11:28:46.681Z,36.30
2018-01-21T11:29:46.636Z,38.40
2018-01-21T11:30:46.592Z,36.70
2018-01-21T11:31:46.555Z,39.50
2018-01-21T11:32:46.526Z,38.80
2018-01-21T11:33:46.467Z,43.20
2018-01-21T11:34:46.426Z,39.30
2018-01-21T11:35:46.387Z,42.60
2018-01-21T11:36:46.340Z,42.70
2018-01-21T11:37:46.299Z,40.10
2018-01-21T11:38:46.260Z,37.40
2018-01-21T11:39:46.218Z,38.80
2018-01-21T11:40:46.169Z,39.50
2018-01-21T11:41:46.130Z,41.50
2018-01-21T11:42:46.088Z,42.20
2018-01-21T11:43:46.045Z,38.60
2018-01-21T11:44:46.000Z,38.30
2018-01-21T11:45:45.957Z,33.60
2018-01-21T11:46:45.923Z,35.70
2018-01-21T11:47:45.898Z,38.60
2018-01-21T11:48:45.845Z,39.30
2018-01-21T11:49:45.799Z,36.90
2018-01-21T11:50:45.768Z,38.40
2018-01-21T11:51:45.710Z,37.20
2018-01-21T11:52:45.685Z,34.00
2018-01-21T11:53:45.705Z,37.50
2018-01-21T11:54:45.591Z,41.30
2018-01-21T11:55:45.550Z,40.10
2018-01-21T11:56:45.553Z,42.50
2018-01-21T11:57:45.468Z,37.50
2018-01-21T11:58:45.414Z,40.70
2018-01-21T11:59:45.420Z,38.60
2018-01-21T12:00:45.332Z,41.70
2018-01-21T12:01:45.310Z,41.10
2018-01-21T12:02:45.253Z,40.30
2018-01-21T12:03:45.234Z,32.10
2018-01-21T12:04:45.158Z,31.00
2018-01-21T12:05:45.145Z,37.70
2018-01-21T12:06:45.128Z,42.80
2018-01-21T12:07:45.142Z,40.10
2018-01-21T12:08:45.059Z,40.80
2018-01-21T12:09:45.067Z,47.30
2018-01-21T12:10:45.148Z,42.80
2018-01-21T12:11:45.021Z,42.00
2018-01-21T12:12:45.003Z,40.50
2018-01-21T12:13:44.853Z,36.40
2018-01-21T12:14:44.860Z,40.40
2018-01-21T12:15:44.737Z,38.80
2018-01-21T12:16:44.818Z,35.30
2018-01-21T12:17:44.714Z,37.50
2018-01-21T12:18:44.570Z,41.30
2018-01-21T12:19:44.633Z,39.90
2018-01-21T12:20:44.623Z,34.00
2018-01-21T12:21:44.456Z,36.10
2018-01-21T12:22:44.569Z,40.60
2018-01-21T12:23:44.514Z,34.00
2018-01-21T12:24:44.597Z,41.60
2018-01-21T12:25:44.343Z,30.50
2018-01-21T12:26:44.252Z,34.00
2018-01-21T12:27:44.388Z,33.40
2018-01-21T12:28:44.502Z,35.20
2018-01-21T12:29:44.187Z,36.50
2018-01-21T12:30:44.200Z,37.50
2018-01-21T12:31:44.023Z,37.00
2018-01-21T12:32:44.006Z,39.80
2018-01-21T12:33:44.028Z,43.40
2018-01-21T12:34:44.180Z,42.00
2018-01-21T12:35:44.017Z,28.20
2018-01-21T12:36:44.059Z,37.10
2018-01-21T12:37:43.985Z,43.20
2018-01-21T12:38:43.739Z,45.90
2018-01-21T12:39:43.691Z,45.60
2018-01-21T12:40:43.669Z,41.80
2018-01-21T12:41:43.601Z,39.90
2018-01-21T12:42:43.561Z,38.70
2018-01-21T12:43:44.004Z,38.80
2018-01-21T12:44:43.823Z,41.40
2018-01-21T12:45:43.539Z,43.40
2018-01-21T12:46:44.051Z,40.70
2018-01-21T12:47:43.644Z,48.40
2018-01-21T12:48:43.486Z,47.50
2018-01-21T12:49:43.295Z,48.80
2018-01-21T12:50:43.401Z,44.80
2018-01-21T12:51:43.407Z,44.00